Time;durP1;ratioP1;P1;durP2;ratioP2;P2;SDS_P1;SDS_P2;PMS_P1;PMS_P2;Temp;Humidity;BMP_temperature;BMP_pressure;BME280_temperature;BME280_humidity;BME280_pressure;Samples;Min_cycle;Max_cycle;Signal;HPM_P1;HPM_P2
2022/03/17 00:00:55;;;;;;;20.90;14.30;;;6.90;99.90;;;;;;5978322;24;20423;-69
2022/03/17 00:03:43;;;;;;;20.67;15.30;;;6.90;99.90;;;;;;5975580;24;20451;-69
2022/03/17 00:06:31;;;;;;;19.70;14.20;;;6.90;99.90;;;;;;5979039;24;21017;-69
2022/03/17 00:09:19;;;;;;;18.13;13.40;;;6.90;99.90;;;;;;5986248;24;20418;-69
2022/03/17 00:12:08;;;;;;;22.07;15.10;;;6.90;99.90;;;;;;5979568;24;20525;-69
2022/03/17 00:14:59;;;;;;;21.40;14.27;;;6.90;99.90;;;;;;5975782;24;20769;-69
2022/03/17 00:17:47;;;;;;;21.20;14.83;;;6.90;99.90;;;;;;5971877;24;20429;-69
2022/03/17 00:20:35;;;;;;;23.77;15.27;;;6.90;99.90;;;;;;5977506;24;20420;-69
2022/03/17 00:23:23;;;;;;;23.07;16.27;;;6.90;99.90;;;;;;5977923;24;20953;-69
2022/03/17 00:26:11;;;;;;;25.13;16.40;;;6.90;99.90;;;;;;6002884;23;20505;-69
2022/03/17 00:28:59;;;;;;;21.40;15.13;;;6.90;99.90;;;;;;6007328;23;20550;-69
2022/03/17 00:31:49;;;;;;;23.43;16.00;;;6.80;99.90;;;;;;6008287;23;21006;-69
2022/03/17 00:35:35;;;;;;;23.53;16.47;;;6.80;99.90;;;;;;6006916;23;20449;-69
2022/03/17 00:37:46;;;;;;;27.93;18.27;;;6.80;99.90;;;;;;6006100;23;20481;-69
2022/03/17 00:40:35;;;;;;;25.40;17.70;;;6.80;99.90;;;;;;6002097;23;20505;-69
2022/03/17 00:43:24;;;;;;;28.07;18.53;;;6.80;99.90;;;;;;6021697;23;20438;-69
2022/03/17 00:46:12;;;;;;;23.27;17.87;;;6.80;99.90;;;;;;6014165;23;20505;-69
2022/03/17 00:49:02;;;;;;;26.50;19.00;;;6.80;99.90;;;;;;6008600;23;20410;-68
2022/03/17 00:51:50;;;;;;;27.40;18.63;;;6.70;99.90;;;;;;6006135;23;20477;-69
2022/03/17 00:54:40;;;;;;;28.40;19.50;;;6.70;99.90;;;;;;5994939;23;20474;-69
2022/03/17 00:57:28;;;;;;;28.20;20.00;;;6.80;99.90;;;;;;5979355;24;20917;-69
2022/03/17 01:00:18;;;;;;;29.20;20.43;;;6.70;99.90;;;;;;5971732;24;20410;-69
2022/03/17 01:03:06;;;;;;;26.43;18.10;;;6.70;99.90;;;;;;5977427;24;20443;-70
2022/03/17 01:05:56;;;;;;;31.60;20.43;;;6.70;99.90;;;;;;5979072;24;20486;-69
2022/03/17 01:08:44;;;;;;;28.80;20.93;;;6.70;99.90;;;;;;5978302;24;20984;-69
2022/03/17 01:11:33;;;;;;;29.77;19.87;;;6.70;99.90;;;;;;5977802;24;20423;-69
2022/03/17 01:14:21;;;;;;;32.90;21.73;;;6.70;99.90;;;;;;5978711;24;20965;-69
2022/03/17 01:17:10;;;;;;;32.00;21.03;;;6.60;99.90;;;;;;5976982;24;20419;-69
2022/03/17 01:19:58;;;;;;;28.50;19.83;;;6.60;99.90;;;;;;5989768;24;20461;-68
2022/03/17 01:22:49;;;;;;;28.47;20.40;;;6.60;99.90;;;;;;5978242;24;20438;-69
2022/03/17 01:25:37;;;;;;;34.00;22.10;;;6.60;99.90;;;;;;5977014;24;20508;-68
2022/03/17 01:28:25;;;;;;;30.00;21.00;;;6.60;99.90;;;;;;5979511;24;20517;-69
2022/03/17 01:31:13;;;;;;;31.17;20.97;;;6.60;99.90;;;;;;5979111;24;20502;-69
2022/03/17 01:34:02;;;;;;;32.40;21.83;;;6.60;99.90;;;;;;5983876;24;20518;-69
2022/03/17 01:36:50;;;;;;;31.17;22.00;;;6.60;99.90;;;;;;5979562;24;20414;-69
2022/03/17 01:39:39;;;;;;;32.20;20.90;;;6.60;99.90;;;;;;5977577;24;20510;-69
2022/03/17 01:42:27;;;;;;;35.80;24.10;;;6.60;99.90;;;;;;5970398;24;20415;-69
2022/03/17 01:45:16;;;;;;;35.37;23.80;;;6.60;99.90;;;;;;5976240;24;20478;-69
2022/03/17 01:48:05;;;;;;;31.97;21.97;;;6.50;99.90;;;;;;5977889;24;20427;-69
2022/03/17 01:50:53;;;;;;;33.83;23.40;;;6.50;99.90;;;;;;5978745;24;20418;-68
2022/03/17 01:53:42;;;;;;;33.83;22.30;;;6.50;99.90;;;;;;5976929;24;20533;-69
2022/03/17 01:56:32;;;;;;;31.53;23.80;;;6.50;99.90;;;;;;5977728;24;20415;-68
2022/03/17 01:59:22;;;;;;;33.80;23.10;;;6.50;99.90;;;;;;5980061;24;20414;-69
2022/03/17 02:02:12;;;;;;;37.23;23.27;;;6.60;99.90;;;;;;5972763;24;20521;-69
2022/03/17 02:05:03;;;;;;;34.40;23.23;;;6.60;99.90;;;;;;5974839;24;20949;-69
2022/03/17 02:07:52;;;;;;;37.57;23.83;;;6.50;99.90;;;;;;5978162;24;20459;-69
2022/03/17 02:13:44;;;;;;;35.53;23.73;;;6.50;99.90;;;;;;5975130;24;20517;-69
2022/03/17 02:16:32;;;;;;;35.60;25.10;;;6.50;99.90;;;;;;5978955;24;20483;-69
2022/03/17 02:19:21;;;;;;;37.53;25.90;;;6.50;99.90;;;;;;5978625;24;20439;-69
2022/03/17 02:22:16;;;;;;;35.63;23.90;;;6.50;99.90;;;;;;5971072;24;20867;-69
2022/03/17 02:28:12;;;;;;;36.60;24.10;;;6.50;99.90;;;;;;5963202;24;20447;-69
2022/03/17 02:31:01;;;;;;;37.57;23.97;;;6.50;99.90;;;;;;5976842;24;20422;-69
2022/03/17 02:33:50;;;;;;;36.80;24.77;;;6.50;99.90;;;;;;5964998;24;20474;-69
2022/03/17 02:36:46;;;;;;;35.90;24.20;;;6.50;99.90;;;;;;5977249;24;20422;-68
2022/03/17 02:39:35;;;;;;;36.87;25.70;;;6.50;99.90;;;;;;5978298;24;20458;-69
2022/03/17 02:42:24;;;;;;;37.47;25.07;;;6.50;99.90;;;;;;5985595;24;20425;-69
2022/03/17 02:45:12;;;;;;;39.57;26.03;;;6.40;99.90;;;;;;5976011;24;21217;-68
2022/03/17 02:48:01;;;;;;;35.20;26.10;;;6.40;99.90;;;;;;5979147;24;20497;-69
2022/03/17 02:50:49;;;;;;;39.30;25.50;;;6.40;99.90;;;;;;5978363;24;20496;-69
2022/03/17 02:53:37;;;;;;;36.70;26.43;;;6.50;99.90;;;;;;5975985;24;20961;-69
2022/03/17 02:56:26;;;;;;;36.10;25.50;;;6.50;99.90;;;;;;5978665;24;20479;-69
2022/03/17 02:59:16;;;;;;;38.67;26.73;;;6.50;99.90;;;;;;5978691;24;20418;-69
2022/03/17 03:02:04;;;;;;;38.47;25.60;;;6.40;99.90;;;;;;5977053;24;20421;-69
2022/03/17 03:04:53;;;;;;;39.17;25.53;;;6.40;99.90;;;;;;5979035;23;20450;-68
2022/03/17 03:07:41;;;;;;;37.93;27.17;;;6.40;99.90;;;;;;5978840;24;20507;-69
2022/03/17 03:10:30;;;;;;;40.77;27.07;;;6.40;99.90;;;;;;5971035;24;20563;-69
2022/03/17 03:13:18;;;;;;;40.73;27.47;;;6.40;99.90;;;;;;5978421;24;20533;-69
2022/03/17 03:16:08;;;;;;;40.20;27.23;;;6.50;99.90;;;;;;6003799;23;20528;-69
2022/03/17 03:18:56;;;;;;;41.80;26.97;;;6.50;99.90;;;;;;6006650;23;20425;-69
2022/03/17 03:21:52;;;;;;;39.40;26.10;;;6.50;99.90;;;;;;5072304;28;20582;-69
2022/03/17 03:24:40;;;;;;;39.00;26.70;;;6.50;99.90;;;;;;5071595;28;20960;-72
2022/03/17 03:27:31;;;;;;;37.40;26.40;;;6.50;99.90;;;;;;5083356;28;20512;-69
2022/03/17 03:30:20;;;;;;;40.70;27.33;;;6.50;99.90;;;;;;5076720;28;20528;-69
2022/03/17 03:33:09;;;;;;;40.60;26.30;;;6.50;99.90;;;;;;5062202;28;20476;-69
2022/03/17 03:39:04;;;;;;;39.67;27.27;;;6.50;99.90;;;;;;5074181;28;20492;-69
2022/03/17 03:41:52;;;;;;;38.57;28.23;;;6.50;99.90;;;;;;5085302;28;21328;-69
2022/03/17 03:44:40;;;;;;;41.57;27.80;;;6.60;99.90;;;;;;5096178;28;20500;-69
2022/03/17 03:47:28;;;;;;;40.47;27.57;;;6.60;99.90;;;;;;5115550;28;21022;-69
2022/03/17 03:50:16;;;;;;;42.03;27.83;;;6.60;99.90;;;;;;5102025;28;20589;-69
2022/03/17 03:53:05;;;;;;;39.33;28.07;;;6.60;99.90;;;;;;5116665;28;20970;-69
2022/03/17 03:55:54;;;;;;;40.70;28.37;;;6.60;99.90;;;;;;5114613;28;21056;-69
2022/03/17 03:58:42;;;;;;;42.53;30.00;;;6.60;99.90;;;;;;5114400;28;20947;-69
2022/03/17 04:01:32;;;;;;;39.93;28.20;;;6.60;99.90;;;;;;5115329;28;20546;-69
2022/03/17 04:04:23;;;;;;;39.10;27.37;;;6.60;99.90;;;;;;5113856;28;20551;-69
2022/03/17 04:07:12;;;;;;;38.77;27.60;;;6.60;99.90;;;;;;5107525;28;20536;-69
2022/03/17 04:10:00;;;;;;;40.67;28.67;;;6.60;99.90;;;;;;5121262;28;20456;-69
2022/03/17 04:12:50;;;;;;;42.07;28.50;;;6.60;99.90;;;;;;5109253;28;20602;-69
2022/03/17 04:15:38;;;;;;;40.20;27.73;;;6.60;99.90;;;;;;5114229;28;20673;-69
2022/03/17 04:18:26;;;;;;;40.60;27.93;;;6.60;99.90;;;;;;5115704;28;20454;-69
2022/03/17 04:21:14;;;;;;;40.77;29.30;;;6.60;99.90;;;;;;5111809;28;20522;-69
2022/03/17 04:24:02;;;;;;;37.80;28.43;;;6.70;99.90;;;;;;5113268;28;20960;-69
2022/03/17 04:26:52;;;;;;;35.33;26.90;;;6.70;99.90;;;;;;5113330;28;20459;-69
2022/03/17 04:29:41;;;;;;;42.20;29.90;;;6.70;99.90;;;;;;5122924;28;21098;-70
2022/03/17 04:32:30;;;;;;;43.07;29.90;;;6.70;99.90;;;;;;5118971;28;20441;-69
2022/03/17 04:35:19;;;;;;;40.37;30.07;;;6.70;99.90;;;;;;5120523;28;20459;-68
2022/03/17 04:38:07;;;;;;;39.50;28.80;;;6.70;99.90;;;;;;5118078;28;20468;-69
2022/03/17 04:40:55;;;;;;;41.67;28.90;;;6.70;99.90;;;;;;5105524;28;20499;-69
2022/03/17 04:43:43;;;;;;;40.07;28.60;;;6.70;99.90;;;;;;5097968;28;20555;-69
2022/03/17 04:46:34;;;;;;;39.30;28.80;;;6.80;99.90;;;;;;5099192;28;20873;-69
2022/03/17 04:49:22;;;;;;;43.57;29.97;;;6.70;99.90;;;;;;5097673;28;20532;-69
2022/03/17 04:55:13;;;;;;;39.50;29.40;;;6.80;99.90;;;;;;5096798;28;20496;-69
2022/03/17 04:58:01;;;;;;;43.83;30.93;;;6.80;99.90;;;;;;5097907;28;20448;-69
2022/03/17 05:00:51;;;;;;;37.83;27.90;;;6.80;99.90;;;;;;5082582;28;20964;-69
2022/03/17 05:03:41;;;;;;;40.17;30.10;;;6.80;99.90;;;;;;5085905;28;20495;-69
2022/03/17 05:06:29;;;;;;;42.47;29.90;;;6.80;99.90;;;;;;5098872;28;20583;-70
2022/03/17 05:09:17;;;;;;;37.13;28.30;;;6.80;99.90;;;;;;5099138;27;20537;-68
2022/03/17 05:12:09;;;;;;;43.03;30.00;;;6.80;99.90;;;;;;5095927;28;20515;-69
2022/03/17 05:14:57;;;;;;;41.57;29.57;;;6.80;99.90;;;;;;5097464;28;20475;-69
2022/03/17 05:17:47;;;;;;;42.80;31.57;;;6.90;99.90;;;;;;5099159;28;20629;-68
2022/03/17 05:20:42;;;;;;;42.37;29.67;;;6.90;99.90;;;;;;5086669;28;20488;-69
2022/03/17 05:23:31;;;;;;;38.73;28.70;;;6.90;99.90;;;;;;5095677;28;20700;-69
2022/03/17 05:26:20;;;;;;;45.00;30.70;;;6.90;99.90;;;;;;5097855;28;20479;-69
2022/03/17 05:29:08;;;;;;;44.57;31.17;;;6.90;99.90;;;;;;5098852;28;20990;-69
2022/03/17 05:31:56;;;;;;;44.73;31.47;;;6.90;99.90;;;;;;5093728;28;20889;-69
2022/03/17 05:34:49;;;;;;;40.37;30.80;;;6.90;99.90;;;;;;5098864;28;20483;-68
2022/03/17 05:37:40;;;;;;;41.13;30.60;;;6.90;99.90;;;;;;5106996;28;20489;-68
2022/03/17 05:40:28;;;;;;;44.30;32.00;;;7.00;99.90;;;;;;5085199;28;20577;-69
2022/03/17 05:43:17;;;;;;;41.80;30.70;;;7.00;99.90;;;;;;5096498;28;20536;-69
2022/03/17 05:46:05;;;;;;;48.00;32.43;;;7.00;99.90;;;;;;5096541;28;20960;-69
2022/03/17 05:48:55;;;;;;;43.60;30.90;;;7.00;99.90;;;;;;5096771;28;20652;-69
2022/03/17 05:51:43;;;;;;;43.67;31.30;;;7.00;99.90;;;;;;5098646;28;20888;-69
2022/03/17 05:54:33;;;;;;;44.03;31.67;;;7.00;99.90;;;;;;5095027;28;20602;-69
2022/03/17 05:57:21;;;;;;;42.00;31.70;;;7.00;99.90;;;;;;5097443;28;20990;-69
2022/03/17 06:00:12;;;;;;;41.67;30.43;;;7.00;99.90;;;;;;5083816;28;20554;-69
2022/03/17 06:03:01;;;;;;;44.33;31.17;;;7.00;99.90;;;;;;5097256;28;20515;-69
2022/03/17 06:05:49;;;;;;;43.33;31.40;;;7.00;99.90;;;;;;5095313;28;20614;-69
2022/03/17 06:08:37;;;;;;;47.03;30.93;;;7.10;99.90;;;;;;5094168;28;20547;-70
2022/03/17 06:11:28;;;;;;;42.47;31.03;;;7.10;99.90;;;;;;5097504;28;20899;-69
2022/03/17 06:14:16;;;;;;;46.60;33.60;;;7.10;99.90;;;;;;5104517;28;20483;-68
2022/03/17 06:17:05;;;;;;;41.70;31.73;;;7.10;99.90;;;;;;5096984;28;20452;-69
2022/03/17 06:19:53;;;;;;;42.37;30.07;;;7.10;99.90;;;;;;5097766;28;20507;-68
2022/03/17 06:22:43;;;;;;;42.07;30.60;;;7.10;99.90;;;;;;5099749;28;20575;-69
2022/03/17 06:25:32;;;;;;;41.53;30.93;;;7.10;99.90;;;;;;5097524;28;20648;-69
2022/03/17 06:28:27;;;;;;;44.50;29.70;;;7.10;99.90;;;;;;5097708;28;20444;-69
2022/03/17 06:31:16;;;;;;;39.23;29.70;;;7.20;99.90;;;;;;5095642;28;20530;-69
2022/03/17 06:34:06;;;;;;;41.50;30.30;;;7.20;99.90;;;;;;5079958;28;20674;-69
2022/03/17 06:36:54;;;;;;;44.53;31.00;;;7.20;99.90;;;;;;5092846;28;20452;-69
2022/03/17 06:39:43;;;;;;;42.87;31.30;;;7.20;99.90;;;;;;5096971;28;20521;-69
2022/03/17 06:42:32;;;;;;;44.47;31.77;;;7.20;99.90;;;;;;5095071;28;20485;-69
2022/03/17 06:45:22;;;;;;;42.40;31.83;;;7.20;99.90;;;;;;5092330;28;20472;-69
2022/03/17 06:48:10;;;;;;;42.03;30.57;;;7.20;99.90;;;;;;5097461;28;20934;-69
2022/03/17 06:50:58;;;;;;;41.13;30.77;;;7.20;99.90;;;;;;5095637;28;20485;-69
2022/03/17 06:53:46;;;;;;;43.47;30.70;;;7.20;99.90;;;;;;5081955;28;20489;-69
2022/03/17 06:56:34;;;;;;;42.40;31.53;;;7.20;99.90;;;;;;5097988;28;20950;-69
2022/03/17 06:59:22;;;;;;;43.87;30.93;;;7.20;99.90;;;;;;5096775;28;20535;-69
2022/03/17 07:02:12;;;;;;;45.40;32.67;;;7.20;99.90;;;;;;5105668;28;20517;-69
2022/03/17 07:05:00;;;;;;;46.00;32.77;;;7.20;99.90;;;;;;5095699;28;20573;-69
2022/03/17 07:07:49;;;;;;;44.03;31.57;;;7.30;99.90;;;;;;5095274;28;20532;-69
2022/03/17 07:10:37;;;;;;;41.30;31.37;;;7.30;99.90;;;;;;5096486;28;20543;-69
2022/03/17 07:13:25;;;;;;;41.80;31.20;;;7.30;99.90;;;;;;5085802;28;20592;-69
2022/03/17 07:16:13;;;;;;;43.30;30.50;;;7.40;99.90;;;;;;5109537;28;20463;-69
2022/03/17 07:19:03;;;;;;;44.20;32.30;;;7.40;99.90;;;;;;5096657;28;20948;-69
2022/03/17 07:21:53;;;;;;;43.27;34.00;;;7.40;99.90;;;;;;5095796;28;20555;-69
2022/03/17 07:24:41;;;;;;;42.80;31.40;;;7.40;99.90;;;;;;5091474;28;20473;-69
2022/03/17 07:27:32;;;;;;;45.07;32.90;;;7.40;99.90;;;;;;5098270;28;20912;-69
2022/03/17 07:30:23;;;;;;;45.50;33.00;;;7.50;99.90;;;;;;5095200;28;20735;-69
2022/03/17 07:33:11;;;;;;;45.50;32.80;;;7.50;99.90;;;;;;5089581;28;21560;-68
2022/03/17 07:36:03;;;;;;;44.50;33.57;;;7.50;99.90;;;;;;5084335;28;20484;-69
2022/03/17 07:38:54;;;;;;;48.20;33.87;;;7.50;99.90;;;;;;5095810;28;20484;-68
2022/03/17 07:41:42;;;;;;;45.03;34.83;;;7.40;99.90;;;;;;5083959;28;20545;-68
2022/03/17 07:44:30;;;;;;;45.27;33.90;;;7.40;99.90;;;;;;5090759;28;20480;-68
2022/03/17 07:47:19;;;;;;;44.43;33.00;;;7.50;99.90;;;;;;5096192;28;21431;-69
2022/03/17 07:50:08;;;;;;;47.30;34.90;;;7.50;99.90;;;;;;5095177;28;20553;-68
2022/03/17 07:52:58;;;;;;;46.10;33.30;;;7.50;99.90;;;;;;5077352;28;20512;-68
2022/03/17 07:55:47;;;;;;;45.77;34.43;;;7.50;99.90;;;;;;5077840;28;20946;-68
2022/03/17 07:58:35;;;;;;;40.90;33.33;;;7.50;99.90;;;;;;5095770;28;20539;-68
2022/03/17 08:01:25;;;;;;;45.93;33.97;;;7.60;99.90;;;;;;5095776;28;20490;-69
2022/03/17 08:04:14;;;;;;;46.00;34.17;;;7.60;99.90;;;;;;5090768;28;20483;-68
2022/03/17 08:07:03;;;;;;;42.30;33.00;;;7.60;99.90;;;;;;5096473;28;20528;-68
2022/03/17 08:09:54;;;;;;;46.40;34.77;;;7.60;99.90;;;;;;5096853;28;20971;-68
2022/03/17 08:12:42;;;;;;;45.33;33.70;;;7.70;99.90;;;;;;5089046;28;20588;-69
2022/03/17 08:15:30;;;;;;;46.43;33.60;;;7.70;99.90;;;;;;5094757;28;20525;-68
2022/03/17 08:18:18;;;;;;;41.70;33.00;;;7.70;99.90;;;;;;5098766;28;20472;-68
2022/03/17 08:21:07;;;;;;;48.30;34.83;;;7.70;99.90;;;;;;5099383;28;20467;-68
2022/03/17 08:23:55;;;;;;;47.53;34.00;;;7.80;99.90;;;;;;5095555;28;20488;-68
2022/03/17 08:26:45;;;;;;;43.83;33.50;;;7.80;99.90;;;;;;5099948;28;20447;-69
2022/03/17 08:29:33;;;;;;;42.57;33.30;;;7.80;99.90;;;;;;5097223;28;20604;-68
2022/03/17 08:32:21;;;;;;;44.20;33.53;;;7.80;99.90;;;;;;5095867;28;20460;-68
2022/03/17 08:35:10;;;;;;;44.23;34.30;;;7.80;99.90;;;;;;5095404;28;20468;-68
2022/03/17 08:37:58;;;;;;;44.60;33.07;;;7.80;99.90;;;;;;5099134;28;20479;-69
2022/03/17 08:40:47;;;;;;;47.17;34.33;;;7.80;99.90;;;;;;5087561;28;20452;-68
2022/03/17 08:43:36;;;;;;;44.50;34.53;;;7.80;99.90;;;;;;5096409;28;20577;-68
2022/03/17 08:49:33;;;;;;;44.27;33.10;;;7.90;99.90;;;;;;5080284;28;20955;-69
2022/03/17 08:52:21;;;;;;;46.43;35.00;;;7.90;99.90;;;;;;5094070;28;20452;-69
2022/03/17 08:55:10;;;;;;;42.80;32.50;;;7.90;99.90;;;;;;5097640;28;20574;-68
2022/03/17 08:57:59;;;;;;;43.80;34.13;;;7.90;99.90;;;;;;5097548;28;20484;-68
2022/03/17 09:00:49;;;;;;;44.70;34.70;;;7.90;99.90;;;;;;5084443;28;20556;-68
2022/03/17 09:03:38;;;;;;;40.93;33.40;;;7.90;99.90;;;;;;5096739;28;20607;-69
2022/03/17 09:06:26;;;;;;;46.67;34.00;;;7.80;99.90;;;;;;5111023;28;20514;-69
2022/03/17 09:09:14;;;;;;;42.80;32.57;;;7.90;99.90;;;;;;5111990;28;20552;-68
2022/03/17 09:12:05;;;;;;;44.50;32.67;;;7.80;99.90;;;;;;5096013;28;20965;-69
2022/03/17 09:14:55;;;;;;;45.63;33.87;;;7.80;99.90;;;;;;5098132;28;20825;-69
2022/03/17 09:17:45;;;;;;;51.90;35.27;;;7.80;99.90;;;;;;5099549;28;20447;-69
2022/03/17 09:20:33;;;;;;;45.67;34.37;;;7.90;99.90;;;;;;5087046;28;20463;-69
2022/03/17 09:23:21;;;;;;;44.40;34.20;;;7.90;99.90;;;;;;5097196;28;20504;-68
2022/03/17 09:26:10;;;;;;;48.83;35.83;;;7.80;99.90;;;;;;5097642;28;20761;-68
2022/03/17 09:28:58;;;;;;;45.53;34.47;;;7.80;99.90;;;;;;5098611;28;20614;-68
2022/03/17 09:31:46;;;;;;;54.03;35.93;;;7.80;99.90;;;;;;5098156;28;20489;-68
2022/03/17 09:34:36;;;;;;;45.53;34.57;;;7.80;99.90;;;;;;5096358;28;20788;-68
2022/03/17 09:37:24;;;;;;;49.93;36.00;;;7.80;99.90;;;;;;5097454;28;21148;-68
2022/03/17 09:40:13;;;;;;;45.57;34.50;;;7.80;99.90;;;;;;5066038;27;20722;-68
2022/03/17 09:43:21;;;;;;;49.30;37.67;;;7.80;99.90;;;;;;5099816;28;20827;-69
2022/03/17 09:46:09;;;;;;;45.30;36.03;;;7.80;99.90;;;;;;5095004;28;20564;-68
2022/03/17 09:49:02;;;;;;;48.53;36.10;;;7.90;99.90;;;;;;5108945;28;20481;-68
2022/03/17 09:51:54;;;;;;;49.80;36.00;;;7.90;99.90;;;;;;5111735;28;20496;-68
2022/03/17 09:54:43;;;;;;;48.30;36.27;;;7.80;99.90;;;;;;5107008;28;20595;-68
2022/03/17 09:57:32;;;;;;;50.23;37.83;;;7.80;99.90;;;;;;5098001;28;20904;-68
2022/03/17 10:00:22;;;;;;;47.63;36.43;;;7.80;99.90;;;;;;5091597;28;20560;-68
2022/03/17 10:03:10;;;;;;;53.00;37.83;;;7.80;99.90;;;;;;5086388;28;20495;-68
2022/03/17 10:05:58;;;;;;;49.17;37.00;;;7.80;99.90;;;;;;5097482;28;20489;-69
2022/03/17 10:08:49;;;;;;;49.13;35.53;;;7.80;99.90;;;;;;5095507;28;20793;-68
2022/03/17 10:11:38;;;;;;;49.93;37.73;;;7.90;99.90;;;;;;5097475;28;20958;-69
2022/03/17 10:14:36;;;;;;;46.50;36.67;;;7.90;99.90;;;;;;5092827;28;22237;-69
2022/03/17 10:17:33;;;;;;;48.23;35.90;;;7.80;99.90;;;;;;5096483;28;20575;-69
2022/03/17 10:20:24;;;;;;;49.90;37.03;;;7.80;99.90;;;;;;5097848;28;20460;-69
2022/03/17 10:23:12;;;;;;;47.30;36.23;;;7.80;99.90;;;;;;5085209;28;20531;-68
2022/03/17 10:26:01;;;;;;;46.83;36.33;;;7.80;99.90;;;;;;5097450;28;20658;-68
2022/03/17 10:28:53;;;;;;;44.43;35.83;;;7.80;99.90;;;;;;5100292;28;20501;-69
2022/03/17 10:32:00;;;;;;;49.57;36.43;;;7.80;99.90;;;;;;5098483;28;20458;-68
2022/03/17 10:34:55;;;;;;;47.60;36.67;;;7.80;99.90;;;;;;5100941;28;20562;-69
2022/03/17 10:37:43;;;;;;;47.20;37.03;;;7.80;99.90;;;;;;5099666;28;20464;-68
2022/03/17 10:40:32;;;;;;;50.13;37.70;;;7.80;99.90;;;;;;5091647;28;20472;-68
2022/03/17 10:43:23;;;;;;;49.00;37.47;;;7.80;99.90;;;;;;5092515;28;20593;-69
2022/03/17 10:46:15;;;;;;;50.10;36.57;;;7.80;99.90;;;;;;5097800;28;20504;-69
2022/03/17 10:49:05;;;;;;;50.50;38.13;;;7.80;99.90;;;;;;5098057;28;20455;-68
2022/03/17 10:51:55;;;;;;;50.70;36.90;;;7.80;99.90;;;;;;5097263;28;20481;-68
2022/03/17 10:54:56;;;;;;;48.70;37.60;;;7.90;99.90;;;;;;5099612;28;20492;-68
2022/03/17 10:57:45;;;;;;;50.97;36.80;;;7.90;99.90;;;;;;5099990;28;20955;-68
2022/03/17 11:00:35;;;;;;;46.77;35.17;;;7.90;99.90;;;;;;5087226;28;20575;-68
2022/03/17 11:03:24;;;;;;;48.50;36.57;;;7.90;99.90;;;;;;5094675;28;20553;-68
2022/03/17 11:06:15;;;;;;;43.70;33.63;;;7.90;99.90;;;;;;5095737;28;20472;-68
2022/03/17 11:09:03;;;;;;;42.77;32.50;;;8.00;99.90;;;;;;5097797;28;20476;-68
2022/03/17 11:11:53;;;;;;;42.30;33.73;;;8.00;99.90;;;;;;5094940;28;20467;-69
2022/03/17 11:14:43;;;;;;;41.10;32.10;;;8.00;99.90;;;;;;5096434;28;20620;-68
2022/03/17 11:17:39;;;;;;;37.53;28.37;;;8.00;99.90;;;;;;5098349;28;20514;-68
2022/03/17 11:20:27;;;;;;;30.30;24.90;;;8.00;99.90;;;;;;5085715;28;20472;-68
2022/03/17 11:23:19;;;;;;;26.77;18.50;;;8.00;99.90;;;;;;5099256;28;20520;-68
2022/03/17 11:26:09;;;;;;;25.97;17.30;;;7.90;99.90;;;;;;5093533;28;20940;-68
2022/03/17 11:29:03;;;;;;;19.80;14.90;;;7.90;99.90;;;;;;5096554;28;20543;-68
2022/03/17 11:31:53;;;;;;;15.60;11.13;;;7.90;99.90;;;;;;5096681;28;20453;-68
2022/03/17 11:34:48;;;;;;;14.53;11.30;;;8.00;99.90;;;;;;5103552;28;20550;-68
2022/03/17 11:37:37;;;;;;;16.17;12.30;;;7.90;99.90;;;;;;5111431;28;20532;-68
2022/03/17 11:40:25;;;;;;;13.13;9.77;;;7.90;99.90;;;;;;5117109;28;20499;-68
2022/03/17 11:43:13;;;;;;;13.37;10.53;;;7.90;99.90;;;;;;5119991;28;20535;-72
2022/03/17 11:46:10;;;;;;;13.13;10.33;;;7.90;99.90;;;;;;5115616;28;20543;-68
2022/03/17 11:48:58;;;;;;;12.90;9.17;;;7.90;99.90;;;;;;5118169;28;20491;-67
2022/03/17 11:52:06;;;;;;;13.77;10.00;;;7.90;99.90;;;;;;5118139;28;20530;-68
2022/03/17 11:55:33;;;;;;;13.73;10.73;;;8.00;99.90;;;;;;5104923;28;20548;-69
2022/03/17 11:58:23;;;;;;;13.23;10.80;;;8.00;99.90;;;;;;5110978;28;20581;-69
2022/03/17 12:01:13;;;;;;;20.20;10.70;;;8.00;99.90;;;;;;5118922;28;20493;-68
2022/03/17 12:04:03;;;;;;;13.63;9.60;;;8.00;99.90;;;;;;5102530;28;20521;-68
2022/03/17 12:06:56;;;;;;;12.00;9.10;;;8.00;99.90;;;;;;5102245;28;20457;-68
2022/03/17 12:09:46;;;;;;;11.40;8.53;;;8.00;99.90;;;;;;5102100;28;20493;-68
2022/03/17 12:12:34;;;;;;;10.10;7.10;;;8.00;99.90;;;;;;5091263;28;20532;-67
2022/03/17 12:15:37;;;;;;;8.27;6.20;;;8.10;99.90;;;;;;5097297;28;20510;-68
2022/03/17 12:18:26;;;;;;;10.70;6.20;;;8.10;99.90;;;;;;5098185;28;20447;-70
2022/03/17 12:21:14;;;;;;;6.40;4.63;;;8.00;99.90;;;;;;5100083;28;20597;-68
2022/03/17 12:24:03;;;;;;;8.77;4.97;;;8.00;99.90;;;;;;5097124;28;20499;-68
2022/03/17 12:27:03;;;;;;;9.30;4.90;;;8.00;99.90;;;;;;5103134;28;20492;-68
2022/03/17 12:29:57;;;;;;;6.17;3.40;;;8.10;99.90;;;;;;5102395;28;20453;-69
2022/03/17 12:32:47;;;;;;;7.30;3.90;;;8.20;99.90;;;;;;5088318;28;21004;-68
2022/03/17 12:35:38;;;;;;;9.77;3.80;;;8.30;99.90;;;;;;5097059;28;20526;-68
2022/03/17 12:38:26;;;;;;;4.70;3.00;;;8.30;99.90;;;;;;5099561;28;20907;-68
2022/03/17 12:41:14;;;;;;;6.73;3.47;;;8.30;99.90;;;;;;5094917;28;20653;-68
2022/03/17 12:44:05;;;;;;;5.70;3.60;;;8.30;99.90;;;;;;5100546;28;20488;-68
2022/03/17 12:46:54;;;;;;;6.97;3.07;;;8.20;99.90;;;;;;5100508;28;20963;-68
2022/03/17 12:49:42;;;;;;;6.30;2.80;;;8.20;99.90;;;;;;5100169;28;20456;-68
2022/03/17 12:52:32;;;;;;;5.07;2.20;;;8.10;99.90;;;;;;5097845;28;21227;-68
2022/03/17 12:55:21;;;;;;;5.20;2.00;;;8.10;99.90;;;;;;5099152;28;20483;-67
2022/03/17 12:58:14;;;;;;;4.23;1.90;;;8.00;99.90;;;;;;5099113;28;20440;-68
2022/03/17 13:01:04;;;;;;;5.07;1.80;;;8.00;99.90;;;;;;5089258;28;20447;-68
2022/03/17 13:03:55;;;;;;;5.50;1.63;;;8.10;99.90;;;;;;5100417;28;20476;-68
2022/03/17 13:06:55;;;;;;;6.47;1.33;;;8.10;99.90;;;;;;5101346;28;20547;-70
2022/03/17 13:09:44;;;;;;;3.60;1.77;;;8.20;99.90;;;;;;5101489;28;20483;-68
2022/03/17 13:15:42;;;;;;;11.37;1.97;;;8.50;99.90;;;;;;5102488;28;20508;-68
2022/03/17 13:18:42;;;;;;;11.00;2.67;;;8.60;99.90;;;;;;5096594;28;20461;-67
2022/03/17 13:21:32;;;;;;;5.23;2.00;;;8.60;99.90;;;;;;5099732;28;20465;-68
2022/03/17 13:24:20;;;;;;;7.17;2.00;;;8.60;99.90;;;;;;5096580;28;20610;-68
2022/03/17 13:27:08;;;;;;;6.17;1.80;;;8.60;99.90;;;;;;5100242;28;20539;-68
2022/03/17 13:29:58;;;;;;;7.63;1.87;;;8.60;99.90;;;;;;5096336;28;20531;-68
2022/03/17 13:32:58;;;;;;;8.13;2.20;;;8.50;99.90;;;;;;5099579;28;20614;-68
2022/03/17 13:35:48;;;;;;;6.10;1.90;;;8.40;99.90;;;;;;5097804;28;20465;-68
2022/03/17 13:38:37;;;;;;;5.30;2.00;;;8.30;99.90;;;;;;5087804;28;20830;-68
2022/03/17 13:41:26;;;;;;;6.43;2.60;;;8.30;99.90;;;;;;5091152;27;20519;-68
2022/03/17 13:44:14;;;;;;;4.73;1.60;;;8.30;99.90;;;;;;5094834;28;20529;-68
2022/03/17 13:47:10;;;;;;;6.10;1.93;;;8.30;99.90;;;;;;5099664;28;20468;-68
2022/03/17 13:50:19;;;;;;;7.57;2.20;;;8.30;99.90;;;;;;5099166;28;20460;-68
2022/03/17 13:53:10;;;;;;;5.40;1.83;;;8.30;99.90;;;;;;5095923;28;20480;-68
2022/03/17 13:56:01;;;;;;;6.50;2.20;;;8.20;99.90;;;;;;5100788;28;21051;-68
2022/03/17 13:58:58;;;;;;;6.87;1.80;;;8.20;99.90;;;;;;5096070;28;20531;-68
2022/03/17 14:01:46;;;;;;;8.13;2.53;;;8.20;99.90;;;;;;5099129;28;20455;-68
2022/03/17 14:04:34;;;;;;;8.57;2.40;;;8.20;99.90;;;;;;5097327;28;20541;-68
2022/03/17 14:07:23;;;;;;;9.13;2.57;;;8.20;99.90;;;;;;5106246;28;20461;-69
2022/03/17 14:10:13;;;;;;;4.50;1.83;;;8.20;99.90;;;;;;5102496;28;20498;-68
2022/03/17 14:13:04;;;;;;;9.10;2.40;;;8.20;99.90;;;;;;5097820;28;20610;-67
2022/03/17 14:15:53;;;;;;;11.23;3.10;;;8.20;99.90;;;;;;5089276;28;20606;-67
2022/03/17 14:18:42;;;;;;;8.23;2.00;;;8.20;99.90;;;;;;5085274;28;20591;-72
2022/03/17 14:21:32;;;;;;;8.70;2.53;;;8.20;99.90;;;;;;5099510;28;20962;-68
2022/03/17 14:24:20;;;;;;;6.30;1.83;;;8.20;99.90;;;;;;5095801;28;20472;-67
2022/03/17 14:27:09;;;;;;;9.03;2.60;;;8.30;99.90;;;;;;5098845;28;20561;-68
2022/03/17 14:29:58;;;;;;;7.70;2.47;;;8.30;99.90;;;;;;5092729;28;20448;-68
2022/03/17 14:32:46;;;;;;;6.77;2.03;;;8.30;99.90;;;;;;5098863;28;20503;-68
2022/03/17 14:35:34;;;;;;;5.93;1.67;;;8.40;99.90;;;;;;5087862;28;20568;-68
2022/03/17 14:38:22;;;;;;;6.53;2.17;;;8.40;99.90;;;;;;5081684;28;20464;-67
2022/03/17 14:41:15;;;;;;;4.83;1.87;;;8.50;99.90;;;;;;5102024;28;20449;-70
2022/03/17 14:44:05;;;;;;;5.63;1.87;;;8.60;99.90;;;;;;5095732;28;20480;-69
2022/03/17 14:46:53;;;;;;;11.43;2.30;;;8.70;99.90;;;;;;5096010;28;20557;-70
2022/03/17 14:49:42;;;;;;;6.37;2.43;;;8.80;99.90;;;;;;5107390;28;21001;-70
2022/03/17 14:52:30;;;;;;;9.13;1.90;;;8.90;99.90;;;;;;5117833;28;20907;-68
2022/03/17 14:55:18;;;;;;;8.00;2.10;;;8.90;99.90;;;;;;5091347;28;20471;-68